Time;durP1;ratioP1;P1;durP2;ratioP2;P2;SDS_P1;SDS_P2;PMS_P1;PMS_P2;Temp;Humidity;BMP_temperature;BMP_pressure;BME280_temperature;BME280_humidity;BME280_pressure;Samples;Min_cycle;Max_cycle;Signal;HPM_P1;HPM_P2
2024/02/11 00:01:19;;;;;;;9.90;5.43;;;;;;;13.23;49.28;99328.31;5029379;28;20033;-78
2024/02/11 00:03:44;;;;;;;10.10;4.22;;;;;;;13.68;48.06;99357.63;5029675;28;20057;-78
2024/02/11 00:06:11;;;;;;;11.68;5.00;;;;;;;13.59;48.35;99343.91;5028303;28;20033;-77
2024/02/11 00:08:39;;;;;;;9.82;3.67;;;;;;;13.78;47.35;99349.66;5029571;28;20469;-78
2024/02/11 00:11:06;;;;;;;6.72;3.38;;;;;;;13.87;47.81;99385.63;5028876;28;20560;-77
2024/02/11 00:13:32;;;;;;;13.98;5.00;;;;;;;13.52;51.46;99384.28;5029350;28;20111;-78
2024/02/11 00:16:08;;;;;;;10.65;4.43;;;;;;;13.21;52.94;99389.31;5029477;28;20045;-79
2024/02/11 00:18:34;;;;;;;31.80;14.57;;;;;;;13.10;51.34;99384.94;5029707;28;20018;-78
2024/02/11 00:21:01;;;;;;;12.63;5.53;;;;;;;13.52;48.36;99392.31;5031157;28;20067;-78
2024/02/11 00:23:28;;;;;;;9.50;3.63;;;;;;;13.60;47.60;99381.13;5029797;28;20466;-78
2024/02/11 00:25:54;;;;;;;7.00;2.63;;;;;;;13.75;46.40;99377.78;5029460;28;20064;-77
2024/02/11 00:28:23;;;;;;;10.65;4.50;;;;;;;13.84;47.77;99386.97;5029565;28;20048;-77
2024/02/11 00:30:49;;;;;;;11.80;6.50;;;;;;;13.51;48.37;99331.78;5031368;28;20057;-77
2024/02/11 00:33:15;;;;;;;13.75;6.72;;;;;;;13.31;50.01;99361.06;5029336;28;20061;-77
2024/02/11 00:35:41;;;;;;;9.50;4.18;;;;;;;13.31;49.25;99345.81;5029979;28;20026;-78
2024/02/11 00:38:06;;;;;;;9.05;3.90;;;;;;;13.37;48.32;99327.91;5027952;28;20029;-77
2024/02/11 00:40:32;;;;;;;9.73;3.42;;;;;;;13.62;48.27;99336.13;5029486;28;20170;-77
2024/02/11 00:42:59;;;;;;;7.32;3.38;;;;;;;13.52;48.75;99320.00;5027628;28;20111;-78
2024/02/11 00:45:26;;;;;;;9.27;3.10;;;;;;;13.46;49.54;99353.16;5028162;28;20025;-78
2024/02/11 00:47:52;;;;;;;9.02;3.30;;;;;;;13.60;48.24;99340.94;5029183;28;20268;-78
2024/02/11 00:50:17;;;;;;;8.32;2.97;;;;;;;13.77;47.84;99374.84;5030767;28;20399;-77
2024/02/11 00:52:48;;;;;;;5.70;2.50;;;;;;;13.89;47.44;99380.81;5009601;28;20037;-77
2024/02/11 00:55:21;;;;;;;7.85;2.78;;;;;;;13.96;48.00;99368.00;5009242;28;20026;-78
2024/02/11 00:57:47;;;;;;;8.02;3.35;;;;;;;13.91;47.93;99381.38;5016836;28;20090;-78
2024/02/11 01:00:15;;;;;;;6.72;2.60;;;;;;;13.87;48.64;99377.59;5028553;28;20426;-78
2024/02/11 01:02:40;;;;;;;6.28;3.20;;;;;;;13.60;50.39;99361.59;5029562;28;20812;-78
2024/02/11 01:05:07;;;;;;;7.30;2.75;;;;;;;13.62;51.13;99357.56;5027380;28;20037;-78
2024/02/11 01:07:33;;;;;;;6.13;2.90;;;;;;;13.51;52.37;99355.91;5028877;28;20102;-77
2024/02/11 01:09:58;;;;;;;6.40;2.80;;;;;;;13.73;52.17;99350.44;5028522;28;20037;-77
2024/02/11 01:12:24;;;;;;;8.45;3.03;;;;;;;13.80;52.23;99334.13;5030395;28;20034;-77
2024/02/11 01:14:50;;;;;;;11.07;3.17;;;;;;;13.83;52.98;99317.53;5027993;28;20056;-77
2024/02/11 01:17:19;;;;;;;6.47;3.08;;;;;;;13.91;53.23;99310.88;5028225;28;20029;-77
2024/02/11 01:19:45;;;;;;;6.60;3.08;;;;;;;13.84;55.10;99313.78;5028495;28;20030;-78
2024/02/11 01:22:11;;;;;;;10.48;3.10;;;;;;;13.89;56.29;99327.22;5028753;28;20033;-77
2024/02/11 01:24:36;;;;;;;6.60;3.20;;;;;;;13.77;55.97;99315.88;5028667;28;20501;-77
2024/02/11 01:27:02;;;;;;;9.75;3.13;;;;;;;13.72;57.77;99330.06;5027656;28;20030;-78
2024/02/11 01:29:27;;;;;;;10.35;3.28;;;;;;;13.60;59.24;99330.22;5028122;28;20062;-79
2024/02/11 01:31:53;;;;;;;8.18;2.85;;;;;;;13.66;58.90;99312.34;5028127;28;20025;-77
2024/02/11 01:34:18;;;;;;;8.48;3.05;;;;;;;13.77;57.90;99326.59;5028147;28;20549;-77
2024/02/11 01:36:44;;;;;;;7.60;1.90;;;;;;;14.05;50.20;99334.28;5026444;28;20068;-78
2024/02/11 01:39:10;;;;;;;6.57;2.38;;;;;;;14.65;48.72;99342.13;5027536;28;20033;-77
2024/02/11 01:41:37;;;;;;;7.05;2.45;;;;;;;14.60;49.62;99331.34;5027932;28;20072;-78
2024/02/11 01:44:03;;;;;;;6.23;2.40;;;;;;;14.94;48.43;99352.41;5027872;28;20029;-77
2024/02/11 01:46:28;;;;;;;7.22;2.40;;;;;;;14.83;48.16;99338.94;5027677;28;20040;-78
2024/02/11 01:48:54;;;;;;;9.38;2.78;;;;;;;14.83;48.76;99322.84;5026151;28;20055;-76
2024/02/11 01:51:20;;;;;;;6.78;2.53;;;;;;;14.55;49.84;99301.81;5027686;28;20029;-77
2024/02/11 01:53:48;;;;;;;7.10;2.67;;;;;;;14.53;49.46;99306.63;5027458;28;20032;-79
2024/02/11 01:56:20;;;;;;;7.90;2.40;;;;;;;14.57;50.78;99307.75;5027456;28;20030;-77
2024/02/11 01:58:46;;;;;;;10.10;3.30;;;;;;;14.58;50.38;99293.25;5027555;28;20081;-79
2024/02/11 02:01:14;;;;;;;8.40;3.13;;;;;;;14.52;50.60;99291.59;5027393;28;20025;-78
2024/02/11 02:03:40;;;;;;;;;;;;;;;14.46;50.08;99307.69;5027140;28;20025;-77
2024/02/11 02:06:05;;;;;;;8.70;2.60;;;;;;;14.62;48.06;99294.31;5027014;28;19909;-77
2024/02/11 02:08:30;;;;;;;7.55;2.63;;;;;;;14.74;47.79;99289.53;5027598;28;20037;-78
2024/02/11 02:10:56;;;;;;;5.70;2.45;;;;;;;14.71;47.05;99275.81;5027196;28;20033;-78
2024/02/11 02:13:23;;;;;;;8.93;2.50;;;;;;;14.74;46.85;99292.22;5028070;28;20383;-78
2024/02/11 02:15:48;;;;;;;7.43;2.40;;;;;;;14.61;47.72;99293.53;5027396;28;20060;-78
2024/02/11 02:18:14;;;;;;;9.40;2.53;;;;;;;14.69;46.95;99300.25;5027222;28;20041;-78
2024/02/11 02:20:39;;;;;;;6.20;2.50;;;;;;;14.80;46.35;99311.81;5027444;28;20083;-78
2024/02/11 02:23:05;;;;;;;6.15;2.30;;;;;;;14.73;46.32;99311.25;5027101;28;20509;-77
2024/02/11 02:25:32;;;;;;;6.00;2.53;;;;;;;14.66;46.46;99300.78;5027324;28;20040;-78
2024/02/11 02:28:00;;;;;;;9.00;2.10;;;;;;;14.47;46.80;99306.59;5029882;28;20087;-78
2024/02/11 02:30:27;;;;;;;6.85;2.80;;;;;;;14.57;46.94;99318.47;5031888;28;20068;-78
2024/02/11 02:32:52;;;;;;;10.30;2.33;;;;;;;14.54;47.04;99310.91;5031174;28;20022;-79
2024/02/11 02:35:21;;;;;;;7.35;2.38;;;;;;;14.38;47.54;99310.84;5031442;28;20029;-78
2024/02/11 02:37:48;;;;;;;7.20;2.65;;;;;;;14.45;47.52;99308.72;5031255;28;20033;-78
2024/02/11 02:40:13;;;;;;;8.07;2.30;;;;;;;14.50;47.75;99323.22;5031513;28;20033;-79
2024/02/11 02:42:39;;;;;;;9.05;2.80;;;;;;;14.63;47.27;99328.16;5029939;28;20040;-78
2024/02/11 02:45:05;;;;;;;8.82;2.80;;;;;;;14.69;47.43;99319.03;5031442;28;20548;-78
2024/02/11 02:47:31;;;;;;;7.60;2.88;;;;;;;14.79;47.44;99327.13;5030916;28;20040;-78
2024/02/11 02:49:56;;;;;;;8.07;2.40;;;;;;;14.72;47.53;99321.19;5031495;28;20033;-79
2024/02/11 02:52:22;;;;;;;7.88;3.25;;;;;;;14.72;47.54;99310.44;5031283;28;20056;-78
2024/02/11 02:54:47;;;;;;;9.30;3.38;;;;;;;14.62;49.06;99313.09;5030930;28;20030;-78
2024/02/11 02:57:13;;;;;;;7.85;3.20;;;;;;;14.37;49.69;99303.06;5030012;28;20096;-78
2024/02/11 02:59:39;;;;;;;9.02;3.05;;;;;;;14.44;50.04;99319.72;5030695;28;20091;-78
2024/02/11 03:02:04;;;;;;;5.90;2.35;;;;;;;14.75;49.84;99320.69;5032814;28;20685;-78
2024/02/11 03:04:30;;;;;;;7.95;2.50;;;;;;;15.00;49.17;99317.22;5030955;28;20112;-78
2024/02/11 03:06:57;;;;;;;7.75;2.47;;;;;;;14.89;49.64;99285.25;5030695;28;20589;-78
2024/02/11 03:09:24;;;;;;;7.32;2.55;;;;;;;14.99;50.07;99314.81;5030617;28;20033;-78
2024/02/11 03:11:50;;;;;;;8.27;2.83;;;;;;;14.79;51.39;99300.28;5030698;28;20084;-78
2024/02/11 03:14:18;;;;;;;10.18;2.72;;;;;;;14.79;51.96;99313.72;5029723;28;20506;-79
2024/02/11 03:16:46;;;;;;;6.05;2.67;;;;;;;14.64;51.46;99292.19;5030641;28;20026;-79
2024/02/11 03:19:15;;;;;;;10.05;3.58;;;;;;;14.79;50.90;99305.66;5030783;28;20036;-79
2024/02/11 03:21:40;;;;;;;10.55;3.42;;;;;;;14.98;50.85;99340.06;5029426;28;20681;-78
2024/02/11 03:24:10;;;;;;;7.55;2.50;;;;;;;14.73;50.41;99287.09;5029053;28;20039;-78
2024/02/11 03:26:36;;;;;;;9.88;3.92;;;;;;;15.20;48.67;99337.09;5030600;28;20043;-79
2024/02/11 03:29:01;;;;;;;8.75;3.22;;;;;;;15.24;49.10;99348.94;5032786;28;20033;-78
2024/02/11 03:31:27;;;;;;;17.10;9.10;;;;;;;15.33;48.57;99354.59;5050174;28;20043;-77
2024/02/11 03:33:53;;;;;;;9.00;3.28;;;;;;;15.44;49.60;99353.53;5036971;28;20108;-78
2024/02/11 03:36:18;;;;;;;8.40;3.47;;;;;;;15.26;50.83;99347.63;5030451;28;20104;-78
2024/02/11 03:38:44;;;;;;;7.07;3.22;;;;;;;15.17;51.76;99327.72;5029689;28;20021;-77
2024/02/11 03:41:12;;;;;;;8.57;2.92;;;;;;;15.20;52.45;99332.56;5028909;28;20499;-78
2024/02/11 03:43:37;;;;;;;10.30;2.83;;;;;;;15.31;53.29;99329.88;5041362;28;20115;-78
2024/02/11 03:46:04;;;;;;;10.20;2.92;;;;;;;14.99;54.26;99307.53;5050642;28;20037;-78
2024/02/11 03:48:29;;;;;;;8.38;2.72;;;;;;;15.10;53.98;99305.69;5050070;28;20025;-77
2024/02/11 03:50:54;;;;;;;10.60;3.20;;;;;;;15.07;54.50;99290.09;5034648;28;20064;-76
2024/02/11 03:53:21;;;;;;;8.23;3.05;;;;;;;15.03;54.34;99300.56;5032287;28;20167;-78
2024/02/11 03:55:46;;;;;;;9.05;2.55;;;;;;;15.06;54.07;99296.56;5028897;28;20032;-78
2024/02/11 03:58:14;;;;;;;6.68;2.45;;;;;;;15.10;53.45;99286.06;5029759;28;20022;-77
2024/02/11 04:00:40;;;;;;;10.80;2.92;;;;;;;14.99;53.25;99263.78;5029923;28;20030;-77
2024/02/11 04:03:07;;;;;;;6.68;2.78;;;;;;;14.96;54.19;99272.41;5028646;28;20051;-76
2024/02/11 04:05:33;;;;;;;7.82;2.75;;;;;;;14.96;54.15;99267.81;5029382;28;20110;-78
2024/02/11 04:07:58;;;;;;;5.95;2.67;;;;;;;15.05;53.71;99278.81;5028492;28;20093;-77
2024/02/11 04:10:28;;;;;;;10.13;3.38;;;;;;;15.27;54.24;99303.53;5029335;28;20428;-77
2024/02/11 04:12:54;;;;;;;8.45;3.08;;;;;;;15.36;53.77;99311.88;5029740;28;20052;-77
2024/02/11 04:15:23;;;;;;;11.90;2.97;;;;;;;15.20;54.31;99305.72;5028104;28;20049;-78
2024/02/11 04:17:49;;;;;;;8.63;4.88;;;;;;;15.24;54.44;99306.78;5029591;28;20059;-77
2024/02/11 04:20:23;;;;;;;11.25;5.55;;;;;;;15.30;54.14;99301.41;5029234;28;20035;-78
2024/02/11 04:22:51;;;;;;;12.43;4.72;;;;;;;15.39;54.14;99323.97;5029686;28;20032;-78
2024/02/11 04:25:20;;;;;;;12.45;2.90;;;;;;;15.44;54.27;99321.28;5030001;28;20034;-77
2024/02/11 04:27:46;;;;;;;10.80;3.40;;;;;;;15.47;54.66;99337.69;5028460;28;20042;-78
2024/02/11 04:30:15;;;;;;;11.32;2.90;;;;;;;15.59;54.97;99334.72;5029680;28;20062;-79
2024/02/11 04:32:43;;;;;;;11.75;3.72;;;;;;;15.53;55.21;99325.06;5029508;28;20075;-78
2024/02/11 04:35:11;;;;;;;;;;;;;;;15.45;55.76;99330.97;5032247;28;20491;-78
2024/02/11 04:37:39;;;;;;;7.13;2.75;;;;;;;15.32;56.39;99324.22;5029625;28;19924;-77
2024/02/11 04:40:10;;;;;;;12.77;3.73;;;;;;;15.05;56.40;99306.47;5029103;28;20032;-77
2024/02/11 04:42:40;;;;;;;8.27;3.53;;;;;;;14.75;56.69;99288.47;5029681;28;20028;-77
2024/02/11 04:45:07;;;;;;;9.07;2.90;;;;;;;14.75;57.20;99307.25;5029523;28;20068;-78
2024/02/11 04:47:35;;;;;;;10.95;3.22;;;;;;;14.96;56.32;99307.28;5029786;28;20754;-78
2024/02/11 04:50:04;;;;;;;12.55;3.10;;;;;;;14.67;56.76;99270.19;5027869;28;20067;-77
2024/02/11 04:52:32;;;;;;;9.90;3.55;;;;;;;15.06;56.02;99305.41;5028758;28;20025;-78
2024/02/11 04:54:57;;;;;;;5.72;2.50;;;;;;;14.95;56.73;99308.34;5029562;28;20593;-78
2024/02/11 04:57:23;;;;;;;8.35;2.50;;;;;;;14.96;56.19;99293.88;5028929;28;20124;-78
2024/02/11 04:59:49;;;;;;;10.23;3.30;;;;;;;15.03;56.82;99316.69;5028908;28;20029;-78
2024/02/11 05:02:14;;;;;;;11.05;2.60;;;;;;;14.97;57.48;99306.22;5028710;28;20030;-78
2024/02/11 05:04:43;;;;;;;9.00;2.72;;;;;;;15.11;57.44;99311.88;5031175;28;20025;-78
2024/02/11 05:07:09;;;;;;;8.20;2.85;;;;;;;15.14;56.86;99314.00;5028648;28;20036;-77
2024/02/11 05:09:37;;;;;;;10.20;2.80;;;;;;;15.00;57.01;99309.19;5026811;28;20037;-79
2024/02/11 05:12:07;;;;;;;8.38;2.60;;;;;;;15.04;56.87;99307.56;5026855;28;20030;-78
2024/02/11 05:14:34;;;;;;;8.43;2.67;;;;;;;15.15;56.38;99296.84;5028557;28;20046;-78
2024/02/11 05:17:03;;;;;;;10.02;2.50;;;;;;;15.15;56.81;99313.75;5026630;28;20034;-77
2024/02/11 05:19:32;;;;;;;10.20;3.05;;;;;;;15.20;56.90;99305.72;5027640;28;20029;-78
2024/02/11 05:21:58;;;;;;;11.85;3.28;;;;;;;15.11;57.65;99323.41;5028080;28;20025;-78
2024/02/11 05:24:23;;;;;;;7.30;2.92;;;;;;;15.02;57.45;99303.53;5027928;28;20159;-78
2024/02/11 05:26:49;;;;;;;8.82;2.70;;;;;;;15.01;58.25;99312.66;5026605;28;20026;-77
2024/02/11 05:29:15;;;;;;;6.28;2.17;;;;;;;15.00;58.30;99298.44;5028091;28;20104;-77
2024/02/11 05:31:41;;;;;;;10.25;2.35;;;;;;;15.17;58.17;99310.81;5028129;28;20044;-77
2024/02/11 05:34:07;;;;;;;8.38;2.20;;;;;;;15.04;58.27;99296.03;5029566;28;20467;-77
2024/02/11 05:36:35;;;;;;;6.05;2.10;;;;;;;15.15;58.30;99302.22;5047677;28;20025;-77
2024/02/11 05:39:00;;;;;;;8.07;2.85;;;;;;;15.28;58.47;99331.22;5047401;28;21294;-77
2024/02/11 05:41:26;;;;;;;8.88;2.83;;;;;;;15.36;57.97;99316.44;5039300;28;20040;-77
2024/02/11 05:43:52;;;;;;;8.65;2.65;;;;;;;15.32;58.33;99312.69;5036302;28;20418;-78
2024/02/11 05:46:17;;;;;;;9.23;2.90;;;;;;;15.35;58.13;99317.53;5067697;28;20040;-77
2024/02/11 05:48:43;;;;;;;11.50;3.17;;;;;;;15.37;57.83;99297.38;5037488;28;20029;-77
2024/02/11 05:51:08;;;;;;;10.15;2.53;;;;;;;15.30;57.87;99304.09;5037098;28;20057;-77
2024/02/11 05:53:36;;;;;;;7.82;3.10;;;;;;;15.38;57.76;99311.59;5035834;28;20033;-77
2024/02/11 05:56:04;;;;;;;12.48;3.75;;;;;;;15.48;57.37;99311.59;5036252;28;20024;-77
2024/02/11 05:58:31;;;;;;;11.95;3.40;;;;;;;15.58;57.24;99322.34;5037241;28;20025;-78
2024/02/11 06:00:57;;;;;;;10.02;2.63;;;;;;;15.65;57.20;99304.06;5037016;28;20037;-78
2024/02/11 06:03:22;;;;;;;11.40;3.20;;;;;;;15.69;57.73;99333.88;5046821;28;20033;-77
2024/02/11 06:05:49;;;;;;;7.95;2.70;;;;;;;15.33;58.28;99315.09;5031008;28;20029;-77
2024/02/11 06:08:15;;;;;;;8.48;2.90;;;;;;;15.28;58.56;99336.59;5026363;28;20456;-77
2024/02/11 06:10:40;;;;;;;10.05;2.90;;;;;;;15.45;58.42;99357.84;5027205;28;20487;-77
2024/02/11 06:13:08;;;;;;;7.70;2.97;;;;;;;15.07;58.24;99333.06;5027431;28;20091;-78
2024/02/11 06:15:37;;;;;;;11.13;2.72;;;;;;;15.56;55.82;99339.81;5027303;28;20133;-77
2024/02/11 06:18:03;;;;;;;8.77;2.92;;;;;;;15.75;55.73;99348.16;5027109;28;20033;-77
2024/02/11 06:20:29;;;;;;;10.23;2.92;;;;;;;15.77;56.14;99364.84;5025697;28;20091;-77
2024/02/11 06:22:55;;;;;;;11.30;3.00;;;;;;;15.65;56.33;99357.84;5027154;28;20034;-77
2024/02/11 06:25:22;;;;;;;8.80;3.20;;;;;;;15.75;55.64;99353.53;5031635;28;20044;-78
2024/02/11 06:27:49;;;;;;;9.52;2.85;;;;;;;15.64;55.88;99348.16;5025938;28;20117;-77
2024/02/11 06:30:16;;;;;;;8.55;2.80;;;;;;;15.73;55.97;99356.50;5030235;28;20025;-77
2024/02/11 06:32:44;;;;;;;10.60;3.70;;;;;;;15.60;57.59;99363.19;5032920;28;20032;-78
2024/02/11 06:35:10;;;;;;;8.27;2.67;;;;;;;15.35;58.96;99345.19;5034102;28;20598;-78
2024/02/11 06:37:40;;;;;;;8.68;2.70;;;;;;;15.51;57.52;99350.56;5035169;28;20112;-78
2024/02/11 06:40:10;;;;;;;14.40;4.97;;;;;;;15.48;58.47;99341.97;5033245;28;20014;-77
2024/02/11 06:42:39;;;;;;;9.40;3.08;;;;;;;15.60;57.64;99347.06;5037133;28;20033;-77
2024/02/11 06:45:08;;;;;;;9.30;3.08;;;;;;;15.68;58.11;99343.03;5035368;28;20025;-78
2024/02/11 06:47:37;;;;;;;9.77;3.38;;;;;;;15.64;58.41;99336.59;5035468;28;20029;-78
2024/02/11 06:50:08;;;;;;;7.22;3.10;;;;;;;15.38;59.96;99333.09;5037171;28;20111;-78
2024/02/11 06:52:34;;;;;;;12.48;3.78;;;;;;;15.68;60.22;99356.47;5036099;28;20074;-77
2024/02/11 06:55:01;;;;;;;14.20;3.75;;;;;;;15.63;60.63;99345.72;5036442;28;20029;-77
2024/02/11 06:57:26;;;;;;;12.45;3.70;;;;;;;15.94;59.76;99359.97;5035418;28;20030;-77
2024/02/11 06:59:52;;;;;;;16.75;7.65;;;;;;;15.88;60.62;99355.69;5034249;28;20601;-77
2024/02/11 07:02:18;;;;;;;9.93;4.03;;;;;;;16.06;59.94;99354.31;5035753;28;20021;-77
2024/02/11 07:04:43;;;;;;;33.58;23.65;;;;;;;16.12;60.11;99352.41;5031435;28;20039;-78
2024/02/11 07:07:09;;;;;;;21.45;10.23;;;;;;;16.22;59.88;99357.75;5034802;28;20040;-78
2024/02/11 07:09:39;;;;;;;17.15;6.68;;;;;;;16.16;59.99;99337.34;5035414;28;20025;-77
2024/02/11 07:12:06;;;;;;;14.52;6.55;;;;;;;16.21;60.14;99342.72;5026222;28;20052;-77
2024/02/11 07:14:32;;;;;;;18.38;10.02;;;;;;;16.04;59.66;99303.50;5035041;28;20041;-76
2024/02/11 07:17:00;;;;;;;16.85;10.95;;;;;;;16.14;59.66;99321.50;5028644;28;20045;-78
2024/02/11 07:19:26;;;;;;;12.80;5.47;;;;;;;15.98;59.83;99304.59;5030490;28;20033;-77
2024/02/11 07:21:52;;;;;;;14.30;9.80;;;;;;;16.13;59.75;99336.00;5029962;28;20037;-77
2024/02/11 07:24:18;;;;;;;12.40;5.00;;;;;;;16.27;59.12;99322.78;5030405;28;20406;-78
2024/02/11 07:26:43;;;;;;;20.23;11.75;;;;;;;16.14;59.49;99331.41;5030175;28;20154;-77
2024/02/11 07:29:09;;;;;;;13.93;4.40;;;;;;;16.14;59.52;99323.34;5030062;28;20029;-78
2024/02/11 07:31:37;;;;;;;17.27;8.43;;;;;;;16.20;59.38;99333.00;5029947;28;20037;-78
2024/02/11 07:34:03;;;;;;;;;;;;;;;16.34;58.78;99328.66;5030464;28;20040;-78
2024/02/11 07:36:28;;;;;;;12.80;5.43;;;;;;;16.23;58.55;99321.72;5032085;28;19917;-77
2024/02/11 07:38:54;;;;;;;12.50;4.10;;;;;;;16.04;57.74;99319.63;5029847;28;20030;-77
2024/02/11 07:41:21;;;;;;;14.65;7.07;;;;;;;16.14;58.51;99320.66;5030004;28;20029;-77
2024/02/11 07:43:47;;;;;;;37.63;25.88;;;;;;;16.36;56.19;99329.19;5030386;28;20033;-79
2024/02/11 07:46:16;;;;;;;10.63;3.53;;;;;;;16.21;58.31;99329.25;5039677;28;20039;-77
2024/02/11 07:48:42;;;;;;;8.70;3.00;;;;;;;16.16;56.59;99318.50;5029826;28;20651;-77
2024/02/11 07:51:07;;;;;;;11.15;3.92;;;;;;;16.12;56.18;99331.72;5028470;28;20493;-78
2024/02/11 07:53:33;;;;;;;10.35;3.63;;;;;;;16.43;55.36;99337.00;5029490;28;20518;-77
2024/02/11 07:55:59;;;;;;;7.43;2.97;;;;;;;16.15;54.19;99295.38;5029371;28;20029;-77
2024/02/11 07:58:25;;;;;;;6.35;2.03;;;;;;;16.44;53.78;99334.00;5029652;28;20033;-77
2024/02/11 08:00:50;;;;;;;9.25;2.03;;;;;;;16.43;53.83;99339.69;5029246;28;20430;-77
2024/02/11 08:03:16;;;;;;;14.32;4.93;;;;;;;16.48;53.10;99297.38;5033162;28;20033;-77
2024/02/11 08:05:41;;;;;;;9.40;2.45;;;;;;;16.51;53.18;99300.59;5029284;28;20052;-77
2024/02/11 08:08:07;;;;;;;7.50;1.90;;;;;;;16.59;53.19;99310.78;5029267;28;20151;-77
2024/02/11 08:10:32;;;;;;;6.18;1.67;;;;;;;16.48;52.30;99286.63;5029405;28;20037;-78
2024/02/11 08:12:58;;;;;;;6.82;1.95;;;;;;;16.79;51.74;99317.97;5028948;28;20028;-78
2024/02/11 08:15:23;;;;;;;8.95;3.38;;;;;;;16.89;51.84;99319.81;5029059;28;20134;-78
2024/02/11 08:17:50;;;;;;;5.03;1.90;;;;;;;16.77;50.83;99318.22;5031502;28;20488;-77
2024/02/11 08:20:17;;;;;;;10.07;2.55;;;;;;;16.83;50.44;99327.91;5029381;28;20021;-78
2024/02/11 08:22:43;;;;;;;10.88;2.00;;;;;;;16.85;49.85;99320.38;5029179;28;20021;-78
2024/02/11 08:25:10;;;;;;;12.52;2.80;;;;;;;16.92;49.65;99308.47;5027893;28;20044;-78
2024/02/11 08:27:40;;;;;;;14.20;1.83;;;;;;;16.65;50.34;99298.91;5029161;28;20029;-78
2024/02/11 08:30:09;;;;;;;5.88;1.40;;;;;;;16.79;49.82;99296.41;5028704;28;20087;-78
2024/02/11 08:32:35;;;;;;;9.07;1.52;;;;;;;16.75;50.28;99327.69;5028899;28;20017;-78
2024/02/11 08:35:01;;;;;;;7.68;1.63;;;;;;;17.20;48.99;99331.19;5027729;28;20037;-76
2024/02/11 08:37:27;;;;;;;4.97;1.50;;;;;;;16.97;49.57;99330.00;5028478;28;20414;-77
2024/02/11 08:39:52;;;;;;;5.25;1.38;;;;;;;16.89;49.06;99314.44;5027266;28;20103;-77
2024/02/11 08:42:17;;;;;;;5.60;1.60;;;;;;;16.90;49.71;99356.44;5028710;28;20024;-77
2024/02/11 08:44:43;;;;;;;8.10;1.73;;;;;;;17.11;49.36;99331.00;5027238;28;20116;-78
2024/02/11 08:47:08;;;;;;;6.20;1.38;;;;;;;17.22;49.01;99321.75;5030875;28;20021;-77
2024/02/11 08:49:35;;;;;;;7.35;1.58;;;;;;;17.13;48.48;99306.47;5028309;28;20151;-78
2024/02/11 08:52:00;;;;;;;5.28;1.85;;;;;;;17.16;49.27;99338.22;5027312;28;20025;-78
2024/02/11 08:54:26;;;;;;;6.90;1.60;;;;;;;17.11;48.72;99327.50;5028329;28;20029;-78
2024/02/11 08:56:52;;;;;;;3.00;1.05;;;;;;;17.02;48.93;99311.09;5026863;28;20025;-79
2024/02/11 08:59:17;;;;;;;2.72;1.30;;;;;;;17.31;49.21;99330.03;5028474;28;20045;-78
2024/02/11 09:01:55;;;;;;;2.85;1.40;;;;;;;17.24;48.90;99341.16;5026990;28;20203;-76
2024/02/11 09:04:23;;;;;;;5.88;1.10;;;;;;;17.10;49.05;99326.69;5028512;28;20132;-78
2024/02/11 09:06:52;;;;;;;2.63;1.10;;;;;;;17.04;49.41;99315.16;5028378;28;20029;-77
2024/02/11 09:09:25;;;;;;;3.42;1.33;;;;;;;16.98;49.71;99304.66;5027267;28;20036;-77
2024/02/11 09:11:57;;;;;;;3.58;1.33;;;;;;;16.98;50.45;99305.50;5027810;28;20124;-77
2024/02/11 09:14:25;;;;;;;4.00;1.27;;;;;;;17.19;50.05;99306.16;5026736;28;20476;-77
2024/02/11 09:16:51;;;;;;;;;;;;;;;17.20;50.05;99307.78;5030703;28;20061;-78
2024/02/11 09:19:16;;;;;;;4.40;1.10;;;;;;;16.99;50.19;99287.44;5028247;28;19913;-77
2024/02/11 09:21:41;;;;;;;4.90;1.40;;;;;;;17.11;49.73;99282.50;5027456;28;20068;-78
2024/02/11 09:24:10;;;;;;;9.30;1.42;;;;;;;17.21;49.51;99277.03;5027738;28;20720;-77
2024/02/11 09:26:36;;;;;;;5.73;1.20;;;;;;;17.20;49.41;99296.16;5027817;28;20025;-77
2024/02/11 09:29:01;;;;;;;7.80;1.45;;;;;;;17.11;49.81;99266.34;5024119;28;20026;-77
2024/02/11 09:31:27;;;;;;;5.88;1.65;;;;;;;17.33;49.43;99267.78;5027928;28;20036;-77
2024/02/11 09:33:52;;;;;;;5.88;1.17;;;;;;;17.13;49.72;99261.47;5026180;28;20028;-77
2024/02/11 09:36:17;;;;;;;3.97;1.15;;;;;;;17.12;49.63;99289.50;5025922;28;20037;-77
2024/02/11 09:38:43;;;;;;;5.72;1.15;;;;;;;16.91;50.33;99263.78;5026534;28;20113;-78
2024/02/11 09:41:09;;;;;;;2.95;1.02;;;;;;;17.16;50.18;99297.81;5027866;28;20041;-78
2024/02/11 09:43:39;;;;;;;7.22;1.55;;;;;;;17.02;50.57;99276.91;5027591;28;20043;-77
2024/02/11 09:46:05;;;;;;;12.90;1.55;;;;;;;17.09;51.37;99297.34;5027853;28;20033;-78
2024/02/11 09:48:32;;;;;;;3.03;0.82;;;;;;;17.17;50.69;99307.53;5027591;28;20196;-77
2024/02/11 09:50:59;;;;;;;3.75;1.13;;;;;;;17.09;51.54;99284.66;5031127;28;20047;-77
2024/02/11 09:53:27;;;;;;;8.17;1.37;;;;;;;17.27;51.89;99304.75;5035695;28;20112;-76
2024/02/11 09:55:53;;;;;;;7.15;2.00;;;;;;;17.31;51.29;99297.72;5035485;28;20264;-77
2024/02/11 09:58:18;;;;;;;5.53;1.20;;;;;;;17.27;50.90;99280.50;5037672;28;20557;-76
2024/02/11 10:00:45;;;;;;;3.75;0.95;;;;;;;17.60;50.36;99305.00;5033779;28;20029;-77
2024/02/11 10:03:14;;;;;;;5.07;1.38;;;;;;;17.31;51.33;99280.75;5027603;28;20124;-78
2024/02/11 10:05:42;;;;;;;6.90;1.55;;;;;;;17.49;51.21;99255.78;5027078;28;20039;-76
2024/02/11 10:08:14;;;;;;;5.00;1.50;;;;;;;17.77;50.38;99272.22;5026958;28;20040;-77
2024/02/11 10:10:40;;;;;;;5.22;1.25;;;;;;;18.17;49.86;99286.38;5026999;28;20083;-76
2024/02/11 10:13:19;;;;;;;4.43;1.30;;;;;;;18.91;48.15;99283.25;5027390;28;20037;-78
2024/02/11 10:15:45;;;;;;;6.25;1.80;;;;;;;19.28;47.77;99274.28;5026715;28;20053;-76
2024/02/11 10:18:10;;;;;;;7.80;1.52;;;;;;;19.41;46.88;99257.31;5027311;28;20160;-77
2024/02/11 10:20:36;;;;;;;2.53;0.75;;;;;;;19.36;45.64;99267.41;5027205;28;20692;-78
2024/02/11 10:23:04;;;;;;;3.00;1.27;;;;;;;19.08;45.86;99226.75;5027342;28;20048;-77
2024/02/11 10:25:31;;;;;;;3.45;0.90;;;;;;;19.19;44.31;99214.69;5025445;28;20030;-76
2024/02/11 10:27:56;;;;;;;3.67;1.00;;;;;;;18.83;45.02;99223.38;5027203;28;20033;-77
2024/02/11 10:30:22;;;;;;;3.22;1.10;;;;;;;18.79;46.34;99216.97;5027479;28;20040;-77
2024/02/11 10:32:47;;;;;;;5.63;1.45;;;;;;;18.26;47.36;99214.47;5026941;28;20034;-77
2024/02/11 10:35:15;;;;;;;4.43;1.30;;;;;;;18.36;47.33;99219.72;5025872;28;20700;-77
2024/02/11 10:37:46;;;;;;;4.15;2.20;;;;;;;18.61;46.71;99231.25;5027012;28;20056;-78
2024/02/11 10:40:12;;;;;;;4.10;1.05;;;;;;;18.60;46.62;99221.56;5026857;28;20573;-77
2024/02/11 10:42:41;;;;;;;5.05;1.13;;;;;;;18.51;47.14;99216.03;5027315;28;20108;-78
2024/02/11 10:45:09;;;;;;;3.92;1.20;;;;;;;18.22;47.43;99208.81;5026693;28;20033;-78
2024/02/11 10:47:36;;;;;;;2.70;0.90;;;;;;;18.40;47.49;99236.94;5026707;28;20041;-78
2024/02/11 10:50:03;;;;;;;4.40;1.20;;;;;;;17.82;48.13;99205.53;5030595;28;20033;-78
2024/02/11 10:52:36;;;;;;;12.13;7.05;;;;;;;17.96;48.25;99243.44;5031036;28;20108;-78
2024/02/11 10:55:03;;;;;;;10.57;4.53;;;;;;;17.92;47.86;99225.41;5030226;28;20679;-79
2024/02/11 10:57:34;;;;;;;5.13;1.70;;;;;;;17.71;48.14;99208.63;5030296;28;20787;-78
2024/02/11 11:00:01;;;;;;;3.88;1.02;;;;;;;17.86;47.91;99217.38;5048350;28;20048;-79
2024/02/11 11:02:33;;;;;;;5.10;1.17;;;;;;;17.87;46.87;99207.41;5049217;28;20082;-78
2024/02/11 11:05:06;;;;;;;3.05;0.80;;;;;;;17.80;47.32;99217.72;5047156;28;20029;-78
2024/02/11 11:07:36;;;;;;;3.58;0.98;;;;;;;17.66;47.25;99207.59;5030114;28;20087;-79
2024/02/11 11:10:10;;;;;;;5.18;1.20;;;;;;;17.69;47.52;99211.59;5030491;28;20102;-79
2024/02/11 11:12:46;;;;;;;2.78;1.00;;;;;;;17.67;47.64;99208.41;5030467;28;20037;-77
2024/02/11 11:15:12;;;;;;;3.70;1.02;;;;;;;17.72;48.20;99212.94;5030487;28;20104;-78
2024/02/11 11:17:37;;;;;;;8.43;1.70;;;;;;;17.66;48.27;99199.50;5028989;28;20026;-78
2024/02/11 11:20:12;;;;;;;2.95;1.10;;;;;;;17.63;48.26;99220.84;5030402;28;20458;-79
2024/02/11 11:22:38;;;;;;;5.18;1.25;;;;;;;17.68;48.28;99220.81;5029812;28;20049;-78
2024/02/11 11:25:10;;;;;;;4.43;1.05;;;;;;;17.83;47.88;99227.94;5030109;28;20038;-78
2024/02/11 11:27:37;;;;;;;6.28;1.48;;;;;;;17.60;47.77;99216.03;5028967;28;20502;-78
2024/02/11 11:30:06;;;;;;;3.13;0.90;;;;;;;17.55;47.75;99216.91;5030242;28;20037;-78